sensor_id;sensor_type;location;lat;lon;timestamp;pressure;altitude;pressure_sealevel;temperature;humidity
7754;BME280;3921;42.266;23.122;2023-03-19T00:02:10;96087.25;;;5.18;51.17
7754;BME280;3921;42.266;23.122;2023-03-19T00:04:37;96148.63;;;5.49;51.29
7754;BME280;3921;42.266;23.122;2023-03-19T00:07:04;96127.09;;;5.51;51.04
7754;BME280;3921;42.266;23.122;2023-03-19T00:09:31;95957.03;;;4.54;50.63
7754;BME280;3921;42.266;23.122;2023-03-19T00:11:58;95948.56;;;4.47;51.00
7754;BME280;3921;42.266;23.122;2023-03-19T00:14:25;96136.78;;;5.40;51.64
7754;BME280;3921;42.266;23.122;2023-03-19T00:16:54;95710.84;;;2.88;51.29
7754;BME280;3921;42.266;23.122;2023-03-19T00:19:21;96210.22;;;5.88;51.10
7754;BME280;3921;42.266;23.122;2023-03-19T00:21:48;96091.50;;;5.22;51.16
7754;BME280;3921;42.266;23.122;2023-03-19T00:24:15;96132.13;;;5.54;50.92
7754;BME280;3921;42.266;23.122;2023-03-19T00:26:42;95851.75;;;3.57;51.33
7754;BME280;3921;42.266;23.122;2023-03-19T00:29:09;96090.78;;;5.27;51.08
7754;BME280;3921;42.266;23.122;2023-03-19T00:31:37;96159.13;;;5.70;51.00
7754;BME280;3921;42.266;23.122;2023-03-19T00:34:07;96022.06;;;4.68;51.97
7754;BME280;3921;42.266;23.122;2023-03-19T00:36:36;96070.66;;;4.85;51.32
7754;BME280;3921;42.266;23.122;2023-03-19T00:39:11;95848.03;;;3.73;51.12
7754;BME280;3921;42.266;23.122;2023-03-19T00:41:38;96220.91;;;5.82;51.42
7754;BME280;3921;42.266;23.122;2023-03-19T00:44:05;96187.41;;;5.72;51.37
7754;BME280;3921;42.266;23.122;2023-03-19T00:46:35;95851.97;;;3.66;51.02
7754;BME280;3921;42.266;23.122;2023-03-19T00:49:02;95970.16;;;4.17;51.51
7754;BME280;3921;42.266;23.122;2023-03-19T00:51:30;95840.91;;;3.25;51.78
7754;BME280;3921;42.266;23.122;2023-03-19T00:53:57;96100.91;;;4.99;51.69
7754;BME280;3921;42.266;23.122;2023-03-19T00:56:24;96075.47;;;4.79;52.03
7754;BME280;3921;42.266;23.122;2023-03-19T00:58:51;96002.94;;;4.34;51.98
7754;BME280;3921;42.266;23.122;2023-03-19T01:01:18;95979.22;;;4.15;52.55
7754;BME280;3921;42.266;23.122;2023-03-19T01:03:45;96131.84;;;5.09;52.68
7754;BME280;3921;42.266;23.122;2023-03-19T01:06:12;95918.47;;;3.73;52.37
7754;BME280;3921;42.266;23.122;2023-03-19T01:08:41;95710.53;;;2.48;52.10
7754;BME280;3921;42.266;23.122;2023-03-19T01:11:09;96091.28;;;4.81;52.62
7754;BME280;3921;42.266;23.122;2023-03-19T01:13:38;96079.13;;;4.60;53.13
7754;BME280;3921;42.266;23.122;2023-03-19T01:16:06;96050.16;;;4.64;52.38
7754;BME280;3921;42.266;23.122;2023-03-19T01:18:33;95965.91;;;4.13;52.85
7754;BME280;3921;42.266;23.122;2023-03-19T01:21:03;96206.91;;;5.54;51.60
7754;BME280;3921;42.266;23.122;2023-03-19T01:23:30;96076.13;;;4.72;51.48
7754;BME280;3921;42.266;23.122;2023-03-19T01:25:59;96016.53;;;4.46;51.69
7754;BME280;3921;42.266;23.122;2023-03-19T01:28:26;96120.47;;;4.87;52.18
7754;BME280;3921;42.266;23.122;2023-03-19T01:30:57;96012.59;;;4.23;51.96
7754;BME280;3921;42.266;23.122;2023-03-19T01:33:25;95543.47;;;1.28;52.46
7754;BME280;3921;42.266;23.122;2023-03-19T01:35:52;96021.09;;;3.99;52.94
7754;BME280;3921;42.266;23.122;2023-03-19T01:38:19;96080.38;;;4.46;52.66
7754;BME280;3921;42.266;23.122;2023-03-19T01:40:47;96041.09;;;4.34;52.01
7754;BME280;3921;42.266;23.122;2023-03-19T01:43:18;96174.91;;;5.04;52.66
7754;BME280;3921;42.266;23.122;2023-03-19T01:45:46;96172.75;;;5.17;52.47
7754;BME280;3921;42.266;23.122;2023-03-19T01:48:19;95974.88;;;3.78;53.10
7754;BME280;3921;42.266;23.122;2023-03-19T01:50:48;95823.16;;;2.81;53.24
7754;BME280;3921;42.266;23.122;2023-03-19T01:53:20;95631.63;;;1.50;53.83
7754;BME280;3921;42.266;23.122;2023-03-19T01:55:49;95956.09;;;3.57;53.40
7754;BME280;3921;42.266;23.122;2023-03-19T01:58:17;96191.09;;;4.89;53.34
7754;BME280;3921;42.266;23.122;2023-03-19T02:00:45;95922.66;;;3.17;53.65
7754;BME280;3921;42.266;23.122;2023-03-19T02:03:12;95633.00;;;1.42;53.23
7754;BME280;3921;42.266;23.122;2023-03-19T02:05:40;95915.25;;;3.19;53.54
7754;BME280;3921;42.266;23.122;2023-03-19T02:08:12;96110.63;;;4.30;53.59
7754;BME280;3921;42.266;23.122;2023-03-19T02:10:41;95698.16;;;1.94;53.00
7754;BME280;3921;42.266;23.122;2023-03-19T02:13:09;95981.47;;;3.47;53.61
7754;BME280;3921;42.266;23.122;2023-03-19T02:15:37;95976.63;;;3.23;53.66
7754;BME280;3921;42.266;23.122;2023-03-19T02:18:05;96214.19;;;4.83;52.97
7754;BME280;3921;42.266;23.122;2023-03-19T02:20:37;95848.56;;;2.74;53.13
7754;BME280;3921;42.266;23.122;2023-03-19T02:23:13;95883.88;;;2.92;53.50
7754;BME280;3921;42.266;23.122;2023-03-19T02:26:00;95776.28;;;2.08;53.22
7754;BME280;3921;42.266;23.122;2023-03-19T02:28:29;96055.75;;;3.95;53.27
7754;BME280;3921;42.266;23.122;2023-03-19T02:30:58;95822.66;;;2.37;53.18
7754;BME280;3921;42.266;23.122;2023-03-19T02:33:25;95787.69;;;2.03;53.24
7754;BME280;3921;42.266;23.122;2023-03-19T02:35:53;96076.41;;;3.92;53.25
7754;BME280;3921;42.266;23.122;2023-03-19T02:38:22;96078.28;;;3.99;53.04
7754;BME280;3921;42.266;23.122;2023-03-19T02:40:52;95950.34;;;3.03;53.49
7754;BME280;3921;42.266;23.122;2023-03-19T02:43:21;96074.78;;;3.66;54.40
7754;BME280;3921;42.266;23.122;2023-03-19T02:45:48;96087.88;;;3.87;53.70
7754;BME280;3921;42.266;23.122;2023-03-19T02:48:16;95931.09;;;2.96;53.32
7754;BME280;3921;42.266;23.122;2023-03-19T02:50:43;96079.34;;;3.79;53.54
7754;BME280;3921;42.266;23.122;2023-03-19T02:53:10;96007.16;;;3.20;53.59
7754;BME280;3921;42.266;23.122;2023-03-19T02:55:37;95976.44;;;3.17;53.63
7754;BME280;3921;42.266;23.122;2023-03-19T02:58:04;96119.00;;;4.03;53.70
7754;BME280;3921;42.266;23.122;2023-03-19T03:00:32;95642.00;;;1.15;53.47
7754;BME280;3921;42.266;23.122;2023-03-19T03:03:00;96136.25;;;3.98;52.91
7754;BME280;3921;42.266;23.122;2023-03-19T03:05:27;95663.72;;;1.22;53.73
7754;BME280;3921;42.266;23.122;2023-03-19T03:07:54;96011.44;;;3.25;53.58
7754;BME280;3921;42.266;23.122;2023-03-19T03:10:21;96025.03;;;3.36;53.64
7754;BME280;3921;42.266;23.122;2023-03-19T03:12:48;96143.34;;;4.13;53.64
7754;BME280;3921;42.266;23.122;2023-03-19T03:15:16;96111.00;;;3.85;53.23
7754;BME280;3921;42.266;23.122;2023-03-19T03:17:45;96152.31;;;4.08;53.43
7754;BME280;3921;42.266;23.122;2023-03-19T03:20:13;96132.31;;;3.78;53.83
7754;BME280;3921;42.266;23.122;2023-03-19T03:22:42;96236.28;;;4.44;54.74
7754;BME280;3921;42.266;23.122;2023-03-19T03:25:10;96127.69;;;3.62;55.02
7754;BME280;3921;42.266;23.122;2023-03-19T03:27:37;95679.25;;;0.92;54.75
7754;BME280;3921;42.266;23.122;2023-03-19T03:30:06;95911.13;;;2.13;54.69
7754;BME280;3921;42.266;23.122;2023-03-19T03:32:33;96165.78;;;3.88;54.80
7754;BME280;3921;42.266;23.122;2023-03-19T03:35:02;96039.41;;;3.19;54.51
7754;BME280;3921;42.266;23.122;2023-03-19T03:37:29;95989.63;;;2.63;55.23
7754;BME280;3921;42.266;23.122;2023-03-19T03:39:57;96066.91;;;3.25;55.50
7754;BME280;3921;42.266;23.122;2023-03-19T03:42:24;96101.47;;;3.44;55.25
7754;BME280;3921;42.266;23.122;2023-03-19T03:44:51;96073.75;;;3.32;54.78
7754;BME280;3921;42.266;23.122;2023-03-19T03:47:18;96109.28;;;3.30;54.98
7754;BME280;3921;42.266;23.122;2023-03-19T03:49:45;96129.66;;;3.72;54.48
7754;BME280;3921;42.266;23.122;2023-03-19T03:52:14;96124.22;;;3.57;54.65
7754;BME280;3921;42.266;23.122;2023-03-19T03:54:41;96116.34;;;3.70;54.04
7754;BME280;3921;42.266;23.122;2023-03-19T03:57:08;95953.28;;;2.64;54.17
7754;BME280;3921;42.266;23.122;2023-03-19T03:59:35;96128.59;;;3.64;53.94
7754;BME280;3921;42.266;23.122;2023-03-19T04:02:02;95879.53;;;2.07;54.54
7754;BME280;3921;42.266;23.122;2023-03-19T04:04:30;95939.28;;;2.15;54.07
7754;BME280;3921;42.266;23.122;2023-03-19T04:06:58;96136.75;;;3.34;54.02
7754;BME280;3921;42.266;23.122;2023-03-19T04:09:26;96152.84;;;3.45;54.78
7754;BME280;3921;42.266;23.122;2023-03-19T04:11:53;96072.91;;;3.05;54.24
7754;BME280;3921;42.266;23.122;2023-03-19T04:14:20;95946.38;;;2.06;54.93
7754;BME280;3921;42.266;23.122;2023-03-19T04:16:47;95757.19;;;1.05;54.47
7754;BME280;3921;42.266;23.122;2023-03-19T04:19:14;96033.84;;;2.75;54.29
7754;BME280;3921;42.266;23.122;2023-03-19T04:21:41;96111.03;;;3.07;55.30
7754;BME280;3921;42.266;23.122;2023-03-19T04:24:09;96133.47;;;3.10;55.28
7754;BME280;3921;42.266;23.122;2023-03-19T04:26:37;95920.53;;;1.74;55.54
7754;BME280;3921;42.266;23.122;2023-03-19T04:29:05;96117.81;;;2.63;56.05
7754;BME280;3921;42.266;23.122;2023-03-19T04:31:32;95776.75;;;0.52;56.37
7754;BME280;3921;42.266;23.122;2023-03-19T04:34:00;95904.06;;;1.29;56.42
7754;BME280;3921;42.266;23.122;2023-03-19T04:36:26;96043.91;;;2.06;56.80
7754;BME280;3921;42.266;23.122;2023-03-19T04:38:53;96152.97;;;2.75;56.16
7754;BME280;3921;42.266;23.122;2023-03-19T04:41:21;95704.63;;;-0.03;56.53
7754;BME280;3921;42.266;23.122;2023-03-19T04:43:49;96281.03;;;3.40;56.60
7754;BME280;3921;42.266;23.122;2023-03-19T04:46:16;95910.66;;;1.06;57.57
7754;BME280;3921;42.266;23.122;2023-03-19T04:48:43;95888.31;;;0.83;57.93
7754;BME280;3921;42.266;23.122;2023-03-19T04:51:10;96284.88;;;3.32;57.37
7754;BME280;3921;42.266;23.122;2023-03-19T04:53:38;96077.44;;;2.19;57.49
7754;BME280;3921;42.266;23.122;2023-03-19T04:56:06;95974.41;;;1.57;58.11
7754;BME280;3921;42.266;23.122;2023-03-19T04:58:33;95975.91;;;1.53;57.98
7754;BME280;3921;42.266;23.122;2023-03-19T05:01:01;95900.06;;;1.09;57.58
7754;BME280;3921;42.266;23.122;2023-03-19T05:03:28;96167.22;;;2.57;58.50
7754;BME280;3921;42.266;23.122;2023-03-19T05:05:56;96157.69;;;2.45;57.62
7754;BME280;3921;42.266;23.122;2023-03-19T05:08:22;95853.34;;;0.73;58.05
7754;BME280;3921;42.266;23.122;2023-03-19T05:10:49;95950.66;;;1.40;57.59
7754;BME280;3921;42.266;23.122;2023-03-19T05:13:17;96133.19;;;2.77;57.41
7754;BME280;3921;42.266;23.122;2023-03-19T05:15:45;96141.34;;;2.74;57.76
7754;BME280;3921;42.266;23.122;2023-03-19T05:18:14;96266.22;;;3.43;57.62
7754;BME280;3921;42.266;23.122;2023-03-19T05:20:41;96148.88;;;2.76;57.48
7754;BME280;3921;42.266;23.122;2023-03-19T05:23:08;96139.25;;;2.85;56.69
7754;BME280;3921;42.266;23.122;2023-03-19T05:25:35;96087.03;;;2.58;56.96
7754;BME280;3921;42.266;23.122;2023-03-19T05:28:03;96114.81;;;2.72;56.68
7754;BME280;3921;42.266;23.122;2023-03-19T05:30:32;96201.06;;;3.51;55.74
7754;BME280;3921;42.266;23.122;2023-03-19T05:32:59;96220.22;;;3.55;56.64
7754;BME280;3921;42.266;23.122;2023-03-19T05:35:29;96220.81;;;3.47;57.02
7754;BME280;3921;42.266;23.122;2023-03-19T05:37:56;95961.88;;;1.76;56.83
7754;BME280;3921;42.266;23.122;2023-03-19T05:40:24;96101.94;;;2.82;56.61
7754;BME280;3921;42.266;23.122;2023-03-19T05:42:51;96144.91;;;3.05;56.32
7754;BME280;3921;42.266;23.122;2023-03-19T05:45:18;96122.59;;;3.06;56.55
7754;BME280;3921;42.266;23.122;2023-03-19T05:47:46;96160.47;;;3.01;56.96
7754;BME280;3921;42.266;23.122;2023-03-19T05:50:15;96114.25;;;2.80;56.28
7754;BME280;3921;42.266;23.122;2023-03-19T05:52:43;96142.66;;;3.12;56.29
7754;BME280;3921;42.266;23.122;2023-03-19T05:55:10;96178.19;;;3.10;56.33
7754;BME280;3921;42.266;23.122;2023-03-19T05:57:37;96019.34;;;2.36;56.62
7754;BME280;3921;42.266;23.122;2023-03-19T06:00:05;96169.69;;;3.29;56.10
7754;BME280;3921;42.266;23.122;2023-03-19T06:02:33;96182.28;;;3.33;57.01
7754;BME280;3921;42.266;23.122;2023-03-19T06:05:00;96152.56;;;3.11;56.61
7754;BME280;3921;42.266;23.122;2023-03-19T06:07:27;96197.25;;;3.36;57.34
7754;BME280;3921;42.266;23.122;2023-03-19T06:09:58;96159.84;;;3.32;57.28
7754;BME280;3921;42.266;23.122;2023-03-19T06:12:31;95821.50;;;1.27;57.69
7754;BME280;3921;42.266;23.122;2023-03-19T06:14:59;95688.25;;;0.44;57.80
7754;BME280;3921;42.266;23.122;2023-03-19T06:17:26;95960.38;;;2.04;58.07
7754;BME280;3921;42.266;23.122;2023-03-19T06:19:53;96150.91;;;3.37;58.27
7754;BME280;3921;42.266;23.122;2023-03-19T06:22:20;96060.94;;;2.69;58.08
7754;BME280;3921;42.266;23.122;2023-03-19T06:24:47;96279.38;;;4.16;57.98
7754;BME280;3921;42.266;23.122;2023-03-19T06:27:18;96255.81;;;4.05;57.79
7754;BME280;3921;42.266;23.122;2023-03-19T06:29:48;95614.75;;;0.16;57.70
7754;BME280;3921;42.266;23.122;2023-03-19T06:32:15;96100.09;;;3.02;59.42
7754;BME280;3921;42.266;23.122;2023-03-19T06:34:42;96163.72;;;3.49;58.52
7754;BME280;3921;42.266;23.122;2023-03-19T06:37:09;95897.59;;;1.79;58.49
7754;BME280;3921;42.266;23.122;2023-03-19T06:39:37;96067.22;;;3.09;58.86
7754;BME280;3921;42.266;23.122;2023-03-19T06:42:04;96182.22;;;3.57;58.76
7754;BME280;3921;42.266;23.122;2023-03-19T06:44:33;96144.69;;;3.50;58.24
7754;BME280;3921;42.266;23.122;2023-03-19T06:47:00;95887.22;;;1.90;58.57
7754;BME280;3921;42.266;23.122;2023-03-19T06:49:27;96164.31;;;3.67;58.90
7754;BME280;3921;42.266;23.122;2023-03-19T06:51:53;96186.53;;;3.90;59.35
7754;BME280;3921;42.266;23.122;2023-03-19T06:54:21;96283.41;;;4.39;59.00
7754;BME280;3921;42.266;23.122;2023-03-19T06:56:48;96168.28;;;3.89;58.46
7754;BME280;3921;42.266;23.122;2023-03-19T06:59:15;96190.84;;;3.95;59.43
7754;BME280;3921;42.266;23.122;2023-03-19T07:01:43;96094.09;;;3.47;59.50
7754;BME280;3921;42.266;23.122;2023-03-19T07:04:11;96159.94;;;4.14;59.56
7754;BME280;3921;42.266;23.122;2023-03-19T07:06:38;96290.88;;;4.95;58.96
7754;BME280;3921;42.266;23.122;2023-03-19T07:09:05;96188.88;;;4.39;59.10
7754;BME280;3921;42.266;23.122;2023-03-19T07:11:32;96023.75;;;3.49;59.16
7754;BME280;3921;42.266;23.122;2023-03-19T07:13:59;96123.72;;;4.24;58.65
7754;BME280;3921;42.266;23.122;2023-03-19T07:16:26;96116.06;;;4.16;59.16
7754;BME280;3921;42.266;23.122;2023-03-19T07:18:57;96104.56;;;4.20;58.98
7754;BME280;3921;42.266;23.122;2023-03-19T07:21:24;96067.63;;;4.04;58.40
7754;BME280;3921;42.266;23.122;2023-03-19T07:23:51;96039.41;;;4.02;59.14
7754;BME280;3921;42.266;23.122;2023-03-19T07:26:18;95759.13;;;2.41;58.86
7754;BME280;3921;42.266;23.122;2023-03-19T07:28:45;96226.06;;;5.23;59.44
7754;BME280;3921;42.266;23.122;2023-03-19T07:31:13;96085.81;;;4.63;59.18
7754;BME280;3921;42.266;23.122;2023-03-19T07:33:41;95790.16;;;2.85;58.45
7754;BME280;3921;42.266;23.122;2023-03-19T07:36:10;96049.31;;;4.62;58.90
7754;BME280;3921;42.266;23.122;2023-03-19T07:38:37;95779.22;;;3.09;58.79
7754;BME280;3921;42.266;23.122;2023-03-19T07:41:04;96213.13;;;5.70;58.31
7754;BME280;3921;42.266;23.122;2023-03-19T07:43:31;96291.34;;;6.05;58.69
7754;BME280;3921;42.266;23.122;2023-03-19T07:45:58;95994.59;;;4.32;58.80
7754;BME280;3921;42.266;23.122;2023-03-19T07:48:25;95755.03;;;3.02;59.00
7754;BME280;3921;42.266;23.122;2023-03-19T07:50:52;96017.19;;;4.71;58.91
7754;BME280;3921;42.266;23.122;2023-03-19T07:53:24;96107.88;;;5.12;58.62
7754;BME280;3921;42.266;23.122;2023-03-19T07:55:51;95939.03;;;4.31;58.54
7754;BME280;3921;42.266;23.122;2023-03-19T07:58:18;96164.97;;;5.72;58.63
7754;BME280;3921;42.266;23.122;2023-03-19T08:00:46;95961.88;;;4.49;58.87
7754;BME280;3921;42.266;23.122;2023-03-19T08:03:13;95957.22;;;4.62;59.16
7754;BME280;3921;42.266;23.122;2023-03-19T08:05:40;95964.00;;;4.69;59.14
7754;BME280;3921;42.266;23.122;2023-03-19T08:08:07;96192.50;;;6.10;59.10
7754;BME280;3921;42.266;23.122;2023-03-19T08:10:36;96177.53;;;6.10;59.61
7754;BME280;3921;42.266;23.122;2023-03-19T08:13:03;96064.94;;;5.58;58.79
7754;BME280;3921;42.266;23.122;2023-03-19T08:15:30;95905.66;;;4.58;57.76
7754;BME280;3921;42.266;23.122;2023-03-19T08:17:57;95960.69;;;5.03;55.24
7754;BME280;3921;42.266;23.122;2023-03-19T08:20:27;96234.78;;;6.81;54.14
7754;BME280;3921;42.266;23.122;2023-03-19T08:22:54;96015.53;;;5.41;54.06
7754;BME280;3921;42.266;23.122;2023-03-19T08:25:22;96110.25;;;6.15;54.62
7754;BME280;3921;42.266;23.122;2023-03-19T08:27:51;95912.84;;;4.80;49.86
7754;BME280;3921;42.266;23.122;2023-03-19T08:30:19;96140.38;;;6.22;50.29
7754;BME280;3921;42.266;23.122;2023-03-19T08:32:48;95968.66;;;5.26;49.90
7754;BME280;3921;42.266;23.122;2023-03-19T08:35:15;95979.09;;;5.46;49.92
7754;BME280;3921;42.266;23.122;2023-03-19T08:37:44;96074.38;;;6.08;49.80
7754;BME280;3921;42.266;23.122;2023-03-19T08:40:11;95988.22;;;5.45;49.33
7754;BME280;3921;42.266;23.122;2023-03-19T08:42:38;95941.56;;;5.40;49.16
7754;BME280;3921;42.266;23.122;2023-03-19T08:45:10;96192.16;;;7.15;49.27
7754;BME280;3921;42.266;23.122;2023-03-19T08:47:37;96012.88;;;6.11;50.28
7754;BME280;3921;42.266;23.122;2023-03-19T08:50:07;96259.31;;;7.41;50.12
7754;BME280;3921;42.266;23.122;2023-03-19T08:52:34;96134.94;;;6.84;49.13
7754;BME280;3921;42.266;23.122;2023-03-19T08:55:02;96099.81;;;6.75;48.91
7754;BME280;3921;42.266;23.122;2023-03-19T08:57:29;96120.06;;;6.90;49.19
7754;BME280;3921;42.266;23.122;2023-03-19T08:59:56;96066.50;;;6.74;49.45
7754;BME280;3921;42.266;23.122;2023-03-19T09:02:25;96176.91;;;7.47;48.31
7754;BME280;3921;42.266;23.122;2023-03-19T09:04:52;96102.09;;;7.09;46.96
7754;BME280;3921;42.266;23.122;2023-03-19T09:07:19;96021.50;;;6.71;46.95
7754;BME280;3921;42.266;23.122;2023-03-19T09:09:47;96174.00;;;7.74;45.53
7754;BME280;3921;42.266;23.122;2023-03-19T09:12:16;96109.84;;;7.25;45.90
7754;BME280;3921;42.266;23.122;2023-03-19T09:14:43;96005.84;;;6.81;46.49
7754;BME280;3921;42.266;23.122;2023-03-19T09:17:10;96112.75;;;7.49;46.24
7754;BME280;3921;42.266;23.122;2023-03-19T09:19:41;96037.75;;;6.98;45.19
7754;BME280;3921;42.266;23.122;2023-03-19T09:22:08;96108.84;;;7.65;45.36
7754;BME280;3921;42.266;23.122;2023-03-19T09:24:35;95781.78;;;5.68;45.35
7754;BME280;3921;42.266;23.122;2023-03-19T09:27:02;95898.59;;;6.39;44.49
7754;BME280;3921;42.266;23.122;2023-03-19T09:29:30;95954.28;;;6.83;44.26
7754;BME280;3921;42.266;23.122;2023-03-19T09:31:57;95693.69;;;5.21;44.21
7754;BME280;3921;42.266;23.122;2023-03-19T09:34:25;95798.25;;;6.07;44.49
7754;BME280;3921;42.266;23.122;2023-03-19T09:36:54;96005.16;;;7.44;44.81
7754;BME280;3921;42.266;23.122;2023-03-19T09:39:21;95748.66;;;5.75;44.67
7754;BME280;3921;42.266;23.122;2023-03-19T09:41:56;95903.38;;;6.77;44.50
7754;BME280;3921;42.266;23.122;2023-03-19T09:44:30;96072.56;;;7.91;43.98
7754;BME280;3921;42.266;23.122;2023-03-19T09:47:05;95913.56;;;6.90;44.11
7754;BME280;3921;42.266;23.122;2023-03-19T09:49:38;95829.81;;;6.56;43.67
7754;BME280;3921;42.266;23.122;2023-03-19T09:52:14;95939.16;;;7.32;43.91
7754;BME280;3921;42.266;23.122;2023-03-19T09:54:48;95815.13;;;6.76;43.26
7754;BME280;3921;42.266;23.122;2023-03-19T09:57:17;95688.56;;;6.11;41.58
7754;BME280;3921;42.266;23.122;2023-03-19T09:59:45;95707.66;;;6.09;42.19
7754;BME280;3921;42.266;23.122;2023-03-19T10:02:30;96016.19;;;8.21;42.01
7754;BME280;3921;42.266;23.122;2023-03-19T10:05:14;96022.94;;;8.28;42.12
7754;BME280;3921;42.266;23.122;2023-03-19T10:08:00;96160.16;;;9.25;42.69
7754;BME280;3921;42.266;23.122;2023-03-19T10:10:44;96081.19;;;8.83;42.28
7754;BME280;3921;42.266;23.122;2023-03-19T10:13:22;95650.63;;;6.34;41.74
7754;BME280;3921;42.266;23.122;2023-03-19T10:15:53;95841.56;;;7.97;41.63
7754;BME280;3921;42.266;23.122;2023-03-19T10:18:23;95870.19;;;8.23;41.49
7754;BME280;3921;42.266;23.122;2023-03-19T10:20:55;95589.38;;;6.62;42.04
7754;BME280;3921;42.266;23.122;2023-03-19T10:23:44;96101.34;;;9.93;41.71
7754;BME280;3921;42.266;23.122;2023-03-19T10:26:15;95922.50;;;8.89;41.67
7754;BME280;3921;42.266;23.122;2023-03-19T10:28:45;95689.63;;;7.78;41.20
7754;BME280;3921;42.266;23.122;2023-03-19T10:31:39;95856.69;;;9.13;39.39
7754;BME280;3921;42.266;23.122;2023-03-19T10:34:16;96019.63;;;10.50;40.85
7754;BME280;3921;42.266;23.122;2023-03-19T10:36:47;95965.13;;;10.36;42.73
7754;BME280;3921;42.266;23.122;2023-03-19T10:39:16;95986.97;;;10.62;42.54
7754;BME280;3921;42.266;23.122;2023-03-19T10:41:49;95816.03;;;9.98;41.46
7754;BME280;3921;42.266;23.122;2023-03-19T10:44:27;95653.66;;;9.20;41.84
7754;BME280;3921;42.266;23.122;2023-03-19T10:46:57;95704.72;;;9.68;41.91
7754;BME280;3921;42.266;23.122;2023-03-19T10:49:24;95688.84;;;10.03;41.96
7754;BME280;3921;42.266;23.122;2023-03-19T10:51:55;95780.03;;;10.77;40.86
7754;BME280;3921;42.266;23.122;2023-03-19T10:54:28;96039.59;;;12.52;40.97
7754;BME280;3921;42.266;23.122;2023-03-19T10:56:57;95629.41;;;10.31;40.87
7754;BME280;3921;42.266;23.122;2023-03-19T10:59:30;95662.00;;;10.61;45.99
7754;BME280;3921;42.266;23.122;2023-03-19T11:01:58;95610.03;;;10.63;42.04
7754;BME280;3921;42.266;23.122;2023-03-19T11:04:27;96043.25;;;13.41;41.97
7754;BME280;3921;42.266;23.122;2023-03-19T11:07:02;95753.56;;;11.95;40.90
7754;BME280;3921;42.266;23.122;2023-03-19T11:09:34;95758.50;;;12.11;41.69
7754;BME280;3921;42.266;23.122;2023-03-19T11:12:07;96019.16;;;13.97;39.37
7754;BME280;3921;42.266;23.122;2023-03-19T11:14:41;95882.59;;;13.39;39.70
7754;BME280;3921;42.266;23.122;2023-03-19T11:17:18;95987.72;;;14.23;41.92
7754;BME280;3921;42.266;23.122;2023-03-19T11:19:49;95766.84;;;13.05;40.42
7754;BME280;3921;42.266;23.122;2023-03-19T11:22:20;95900.31;;;14.06;38.75
7754;BME280;3921;42.266;23.122;2023-03-19T11:24:51;95721.34;;;13.14;39.55
7754;BME280;3921;42.266;23.122;2023-03-19T11:27:25;95841.28;;;14.11;38.56
7754;BME280;3921;42.266;23.122;2023-03-19T11:29:53;95964.50;;;15.17;40.33
7754;BME280;3921;42.266;23.122;2023-03-19T11:32:42;95691.19;;;13.68;39.75
7754;BME280;3921;42.266;23.122;2023-03-19T11:35:14;95956.28;;;15.53;40.94
7754;BME280;3921;42.266;23.122;2023-03-19T11:37:52;95607.06;;;13.65;40.13
7754;BME280;3921;42.266;23.122;2023-03-19T11:40:28;95821.25;;;15.06;37.76
7754;BME280;3921;42.266;23.122;2023-03-19T11:43:22;95956.09;;;16.09;37.40
7754;BME280;3921;42.266;23.122;2023-03-19T11:45:59;95645.50;;;14.33;35.84
7754;BME280;3921;42.266;23.122;2023-03-19T11:48:41;95728.53;;;15.04;36.17
7754;BME280;3921;42.266;23.122;2023-03-19T11:51:17;95674.81;;;14.90;34.50
7754;BME280;3921;42.266;23.122;2023-03-19T11:53:55;95894.59;;;16.39;33.22
7754;BME280;3921;42.266;23.122;2023-03-19T11:56:32;95748.97;;;15.78;33.11
7754;BME280;3921;42.266;23.122;2023-03-19T11:59:39;95941.72;;;17.24;33.15
7754;BME280;3921;42.266;23.122;2023-03-19T12:05:17;95912.91;;;17.25;30.63
7754;BME280;3921;42.266;23.122;2023-03-19T12:07:54;95842.81;;;16.87;31.65
7754;BME280;3921;42.266;23.122;2023-03-19T12:10:35;95782.94;;;16.78;33.10
7754;BME280;3921;42.266;23.122;2023-03-19T12:13:19;95861.97;;;17.31;30.88
7754;BME280;3921;42.266;23.122;2023-03-19T12:15:57;95654.97;;;16.23;30.34
7754;BME280;3921;42.266;23.122;2023-03-19T12:18:43;95675.72;;;16.70;31.65
7754;BME280;3921;42.266;23.122;2023-03-19T12:21:20;95561.78;;;16.00;30.18
7754;BME280;3921;42.266;23.122;2023-03-19T12:24:00;95878.38;;;18.13;29.01
7754;BME280;3921;42.266;23.122;2023-03-19T12:26:35;95638.75;;;16.61;29.43
7754;BME280;3921;42.266;23.122;2023-03-19T12:29:14;95782.16;;;17.69;30.21
7754;BME280;3921;42.266;23.122;2023-03-19T12:31:57;95467.69;;;15.80;29.09
7754;BME280;3921;42.266;23.122;2023-03-19T12:34:33;95831.81;;;18.11;30.18
7754;BME280;3921;42.266;23.122;2023-03-19T12:37:11;95876.81;;;18.65;30.05
7754;BME280;3921;42.266;23.122;2023-03-19T12:39:45;95743.00;;;17.76;27.93
7754;BME280;3921;42.266;23.122;2023-03-19T12:42:17;95632.16;;;17.16;29.22
7754;BME280;3921;42.266;23.122;2023-03-19T12:44:49;95805.88;;;18.54;28.29
7754;BME280;3921;42.266;23.122;2023-03-19T12:47:23;95770.50;;;18.46;27.20
7754;BME280;3921;42.266;23.122;2023-03-19T12:49:54;95721.25;;;18.22;28.06
7754;BME280;3921;42.266;23.122;2023-03-19T12:52:26;95518.09;;;17.10;28.30
7754;BME280;3921;42.266;23.122;2023-03-19T12:54:58;95622.78;;;17.74;28.37
7754;BME280;3921;42.266;23.122;2023-03-19T12:57:33;95509.91;;;17.01;29.13
7754;BME280;3921;42.266;23.122;2023-03-19T13:00:07;95771.50;;;18.69;26.55
7754;BME280;3921;42.266;23.122;2023-03-19T13:02:41;95456.06;;;16.91;26.83
7754;BME280;3921;42.266;23.122;2023-03-19T13:05:17;95837.34;;;19.29;26.40
7754;BME280;3921;42.266;23.122;2023-03-19T13:07:50;95463.06;;;17.11;26.84
7754;BME280;3921;42.266;23.122;2023-03-19T13:10:22;95725.91;;;18.88;26.17
7754;BME280;3921;42.266;23.122;2023-03-19T13:12:50;95598.47;;;18.19;26.82
7754;BME280;3921;42.266;23.122;2023-03-19T13:15:25;95693.19;;;18.77;25.72
7754;BME280;3921;42.266;23.122;2023-03-19T13:18:02;95662.84;;;18.71;25.86
7754;BME280;3921;42.266;23.122;2023-03-19T13:20:48;95428.84;;;17.22;25.62
7754;BME280;3921;42.266;23.122;2023-03-19T13:23:21;95567.34;;;17.86;26.21
7754;BME280;3921;42.266;23.122;2023-03-19T13:25:49;95569.84;;;17.61;27.63
7754;BME280;3921;42.266;23.122;2023-03-19T13:28:26;95471.88;;;17.25;26.87
7754;BME280;3921;42.266;23.122;2023-03-19T13:31:00;95595.75;;;17.98;27.10
7754;BME280;3921;42.266;23.122;2023-03-19T13:33:28;95563.56;;;17.72;28.33
7754;BME280;3921;42.266;23.122;2023-03-19T13:35:56;95573.63;;;17.75;27.63
7754;BME280;3921;42.266;23.122;2023-03-19T13:38:35;95399.09;;;16.73;27.00